createdAt,value
2019-01-17T00:02:22.821Z,99271.77
2019-01-17T00:05:51.771Z,99286.17
2019-01-17T00:09:02.213Z,99283.22
2019-01-17T00:12:23.871Z,99277.75
2019-01-17T00:15:49.753Z,99277.41
2019-01-17T00:19:11.385Z,99265.48
2019-01-17T00:22:52.722Z,99260.83
2019-01-17T00:26:21.403Z,99260.76
2019-01-17T00:29:53.396Z,99254.66
2019-01-17T00:33:14.673Z,99259.84
2019-01-17T00:36:43.366Z,99264.50
2019-01-17T00:40:05.179Z,99256.77
2019-01-17T00:43:30.890Z,99264.70
2019-01-17T00:46:56.541Z,99254.28
2019-01-17T00:50:18.778Z,99249.32
2019-01-17T00:53:40.903Z,99245.48
2019-01-17T00:57:00.001Z,99244.47
2019-01-17T01:00:12.993Z,99239.22
2019-01-17T01:03:25.835Z,99245.38
2019-01-17T01:07:03.874Z,99251.79
2019-01-17T01:10:41.234Z,99230.34
2019-01-17T01:14:16.448Z,99233.64
2019-01-17T01:17:27.022Z,99219.62
2019-01-17T01:20:48.025Z,99226.27
2019-01-17T01:24:23.234Z,99224.00
2019-01-17T01:27:45.933Z,99224.95
2019-01-17T01:31:07.737Z,99239.67
2019-01-17T01:34:29.521Z,99243.06
2019-01-17T01:37:51.102Z,99238.87
2019-01-17T01:41:06.503Z,99237.39
2019-01-17T01:44:28.251Z,99240.46
2019-01-17T01:47:42.174Z,99251.25
2019-01-17T01:50:58.178Z,99254.13
2019-01-17T01:54:02.009Z,99252.53
2019-01-17T01:57:05.950Z,99239.75
2019-01-17T02:00:10.665Z,99239.03
2019-01-17T02:03:14.477Z,99240.00
2019-01-17T02:06:18.301Z,99225.80
2019-01-17T02:09:22.287Z,99229.14
2019-01-17T02:12:26.191Z,99228.33
2019-01-17T02:15:30.275Z,99223.33
2019-01-17T02:18:34.074Z,99223.00
2019-01-17T02:21:38.073Z,99228.63
2019-01-17T02:24:41.882Z,99233.02
2019-01-17T02:27:45.740Z,99228.36
2019-01-17T02:30:49.703Z,99228.09
2019-01-17T02:33:53.534Z,99232.03
2019-01-17T02:36:57.349Z,99228.83
2019-01-17T02:40:01.265Z,99222.93
2019-01-17T02:43:05.138Z,99226.88
2019-01-17T02:46:09.046Z,99222.63
2019-01-17T02:49:12.860Z,99228.28
2019-01-17T02:52:16.681Z,99232.59
2019-01-17T02:55:20.472Z,99226.56
2019-01-17T02:58:24.307Z,99232.13
2019-01-17T03:01:28.291Z,99230.61
2019-01-17T03:04:32.085Z,99233.72
2019-01-17T03:07:36.271Z,99231.23
2019-01-17T03:10:40.172Z,99235.20
2019-01-17T03:13:44.016Z,99230.41
2019-01-17T03:16:47.986Z,99218.18
2019-01-17T03:19:51.881Z,99231.13
2019-01-17T03:22:55.808Z,99224.92
2019-01-17T03:25:59.617Z,99224.41
2019-01-17T03:29:03.504Z,99226.54
2019-01-17T03:32:07.387Z,99222.70
2019-01-17T03:35:11.552Z,99227.31
2019-01-17T03:38:15.429Z,99225.06
2019-01-17T03:41:19.407Z,99222.06
2019-01-17T03:44:23.323Z,99218.08
2019-01-17T03:47:27.234Z,99217.77
2019-01-17T03:50:31.181Z,99215.95
2019-01-17T03:53:35.000Z,99217.88
2019-01-17T03:56:38.907Z,99209.98
2019-01-17T03:59:42.852Z,99206.13
2019-01-17T04:02:46.827Z,99210.40
2019-01-17T04:05:50.693Z,99205.28
2019-01-17T04:08:54.581Z,99210.16
2019-01-17T04:11:58.467Z,99192.09
2019-01-17T04:15:02.517Z,99195.37
2019-01-17T04:18:06.558Z,99196.08
2019-01-17T04:21:10.481Z,99204.25
2019-01-17T04:24:14.336Z,99196.17
2019-01-17T04:27:18.324Z,99198.24
2019-01-17T04:30:22.264Z,99195.09
2019-01-17T04:33:26.147Z,99190.91
2019-01-17T04:36:30.028Z,99203.59
2019-01-17T04:39:33.871Z,99205.81
2019-01-17T04:42:37.802Z,99195.84
2019-01-17T04:45:41.607Z,99193.34
2019-01-17T04:48:45.439Z,99191.42
2019-01-17T04:51:49.307Z,99184.95
2019-01-17T04:54:53.149Z,99183.14
2019-01-17T04:57:57.015Z,99192.03
2019-01-17T05:01:00.850Z,99188.90
2019-01-17T05:04:04.867Z,99188.73
2019-01-17T05:07:08.804Z,99193.89
2019-01-17T05:10:13.314Z,99186.64
2019-01-17T05:13:17.223Z,99185.42
2019-01-17T05:16:21.177Z,99188.66
2019-01-17T05:19:25.026Z,99185.25
2019-01-17T05:22:28.846Z,99182.94
2019-01-17T05:25:32.661Z,99179.80
2019-01-17T05:28:36.558Z,99182.12
2019-01-17T05:31:40.456Z,99177.84
2019-01-17T05:34:44.330Z,99169.65
2019-01-17T05:37:48.280Z,99163.88
2019-01-17T05:40:52.086Z,99161.70
2019-01-17T05:43:55.990Z,99159.92
2019-01-17T05:46:59.981Z,99172.19
2019-01-17T05:50:04.659Z,99176.09
2019-01-17T05:53:08.475Z,99173.52
2019-01-17T05:56:12.380Z,99169.20
2019-01-17T05:59:16.169Z,99165.27
2019-01-17T06:02:20.010Z,99175.88
2019-01-17T06:05:23.822Z,99178.23
2019-01-17T06:08:27.669Z,99175.09
2019-01-17T06:11:31.473Z,99171.33
2019-01-17T06:14:35.294Z,99174.57
2019-01-17T06:17:39.256Z,99175.33
2019-01-17T06:20:43.051Z,99177.80
2019-01-17T06:23:46.904Z,99170.44
2019-01-17T06:26:50.723Z,99170.12
2019-01-17T06:29:54.534Z,99167.48
2019-01-17T06:32:58.501Z,99162.87
2019-01-17T06:36:02.486Z,99156.67
2019-01-17T06:39:08.271Z,99157.08
2019-01-17T06:42:12.114Z,99173.16
2019-01-17T06:45:15.982Z,99173.66
2019-01-17T06:48:19.876Z,99175.42
2019-01-17T06:51:23.784Z,99181.81
2019-01-17T06:54:27.768Z,99182.25
2019-01-17T06:57:31.581Z,99189.53
2019-01-17T07:00:35.471Z,99176.95
2019-01-17T07:03:39.268Z,99166.88
2019-01-17T07:06:43.236Z,99173.14
2019-01-17T07:09:47.096Z,99170.03
2019-01-17T07:12:50.990Z,99171.94
2019-01-17T07:15:54.803Z,99173.98
2019-01-17T07:18:58.720Z,99176.75
2019-01-17T07:22:02.597Z,99179.41
2019-01-17T07:25:07.437Z,99179.77
2019-01-17T07:28:11.333Z,99184.11
2019-01-17T07:31:15.292Z,99175.86
2019-01-17T07:34:19.208Z,99172.36
2019-01-17T07:37:23.684Z,99179.23
2019-01-17T07:40:27.619Z,99175.63
2019-01-17T07:43:31.674Z,99179.56
2019-01-17T07:46:36.546Z,99170.13
2019-01-17T07:49:40.547Z,99170.72
2019-01-17T07:52:44.603Z,99166.35
2019-01-17T07:55:48.491Z,99171.27
2019-01-17T07:58:52.296Z,99170.93
2019-01-17T08:01:56.170Z,99157.78
2019-01-17T08:05:00.216Z,99156.41
2019-01-17T08:08:04.388Z,99163.45
2019-01-17T08:11:08.270Z,99178.50
2019-01-17T08:14:12.269Z,99173.14
2019-01-17T08:17:16.150Z,99175.73
2019-01-17T08:20:22.436Z,99179.17
2019-01-17T08:23:26.222Z,99181.77
2019-01-17T08:26:30.108Z,99181.34
2019-01-17T08:29:34.094Z,99170.22
2019-01-17T08:32:37.955Z,99175.67
2019-01-17T08:35:41.850Z,99183.27
2019-01-17T08:38:45.726Z,99179.55
2019-01-17T08:41:49.625Z,99175.16
2019-01-17T08:44:53.899Z,99166.17
2019-01-17T08:47:58.205Z,99168.48
2019-01-17T08:51:02.292Z,99173.30
2019-01-17T08:54:06.235Z,99169.86
2019-01-17T08:57:10.238Z,99174.65
2019-01-17T09:00:17.245Z,99164.09
2019-01-17T09:03:21.126Z,99171.44
2019-01-17T09:06:24.938Z,99183.27
2019-01-17T09:09:28.830Z,99174.36
2019-01-17T09:12:32.706Z,99172.45
2019-01-17T09:15:36.850Z,99166.36
2019-01-17T09:18:40.635Z,99177.91
2019-01-17T09:21:44.525Z,99176.25
2019-01-17T09:24:48.340Z,99164.53
2019-01-17T09:27:52.315Z,99168.52
2019-01-17T09:30:56.234Z,99181.34
2019-01-17T09:34:00.404Z,99182.47
2019-01-17T09:37:04.357Z,99180.02
2019-01-17T09:40:10.933Z,99180.34
2019-01-17T09:43:14.744Z,99190.45
2019-01-17T09:46:18.679Z,99178.25
2019-01-17T09:49:22.764Z,99183.48
2019-01-17T09:52:27.288Z,99185.21
2019-01-17T09:55:31.344Z,99174.17
2019-01-17T09:58:35.151Z,99178.05
2019-01-17T10:01:39.107Z,99170.34
2019-01-17T10:04:43.396Z,99190.25
2019-01-17T10:07:47.464Z,99180.64
2019-01-17T10:10:51.865Z,99179.06
2019-01-17T10:13:55.956Z,99196.20
2019-01-17T10:17:34.934Z,99194.05
2019-01-17T10:21:14.342Z,99193.00
2019-01-17T10:24:48.209Z,99210.27
2019-01-17T10:28:32.639Z,99207.61
2019-01-17T10:32:00.764Z,99208.05
2019-01-17T10:35:47.848Z,99199.19
2019-01-17T10:39:38.633Z,99199.91
2019-01-17T10:43:35.304Z,99202.29
2019-01-17T10:47:41.555Z,99206.13
2019-01-17T10:51:29.701Z,99211.98
2019-01-17T10:55:29.194Z,99214.59
2019-01-17T10:58:45.613Z,99208.55
2019-01-17T11:02:54.622Z,99194.45
2019-01-17T11:06:14.062Z,99215.17
2019-01-17T11:09:51.718Z,99206.86
2019-01-17T11:13:09.050Z,99211.68
2019-01-17T11:16:38.453Z,99205.34
2019-01-17T11:20:14.526Z,99209.73
2019-01-17T11:23:47.993Z,99204.29
2019-01-17T11:27:34.811Z,99210.67
2019-01-17T11:30:59.411Z,99200.97
2019-01-17T11:34:19.052Z,99206.04
2019-01-17T11:38:05.864Z,99219.56
2019-01-17T11:41:25.957Z,99223.73
2019-01-17T11:45:02.502Z,99224.76
2019-01-17T11:48:59.246Z,99231.33
2019-01-17T11:52:52.166Z,99225.07
2019-01-17T11:56:51.938Z,99233.16
2019-01-17T12:00:45.239Z,99237.89
2019-01-17T12:04:09.032Z,99244.33
2019-01-17T12:07:17.216Z,99246.95
2019-01-17T12:10:21.272Z,99248.22
2019-01-17T12:13:25.149Z,99249.27
2019-01-17T12:16:29.076Z,99261.73
2019-01-17T12:19:32.950Z,99267.03
2019-01-17T12:22:36.837Z,99277.68
2019-01-17T12:25:40.758Z,99285.91
2019-01-17T12:28:44.558Z,99283.42
2019-01-17T12:31:48.482Z,99290.70
2019-01-17T12:34:52.380Z,99309.31
2019-01-17T12:37:56.185Z,99291.51
2019-01-17T12:41:00.021Z,99293.53
2019-01-17T12:44:04.071Z,99301.12
2019-01-17T12:47:08.031Z,99309.52
2019-01-17T12:50:15.802Z,99304.16
2019-01-17T12:53:19.598Z,99300.20
2019-01-17T12:56:23.500Z,99312.65
2019-01-17T12:59:27.328Z,99315.42
2019-01-17T13:02:31.222Z,99320.84
2019-01-17T13:05:35.196Z,99315.01
2019-01-17T13:08:39.067Z,99327.33
2019-01-17T13:11:43.064Z,99332.05
2019-01-17T13:14:46.876Z,99329.01
2019-01-17T13:17:50.772Z,99334.73
2019-01-17T13:20:54.573Z,99347.55
2019-01-17T13:23:58.398Z,99344.91
2019-01-17T13:27:02.220Z,99350.58
2019-01-17T13:30:10.189Z,99350.98
2019-01-17T13:33:14.076Z,99357.00
2019-01-17T13:36:17.878Z,99360.22
2019-01-17T13:39:21.781Z,99359.94
2019-01-17T13:42:25.954Z,99363.73
2019-01-17T13:45:30.717Z,99366.77
2019-01-17T13:48:34.599Z,99363.71
2019-01-17T13:51:38.605Z,99374.64
2019-01-17T13:54:42.554Z,99377.70
2019-01-17T13:57:46.531Z,99372.02
2019-01-17T14:00:50.441Z,99372.36
2019-01-17T14:03:54.279Z,99381.91
2019-01-17T14:06:58.090Z,99373.64
2019-01-17T14:10:02.028Z,99381.30
2019-01-17T14:13:05.827Z,99383.25
2019-01-17T14:16:09.939Z,99392.72
2019-01-17T14:19:14.070Z,99399.80
2019-01-17T14:22:18.357Z,99400.42
2019-01-17T14:25:22.251Z,99417.30
2019-01-17T14:28:26.171Z,99435.07
2019-01-17T14:31:30.255Z,99409.77
2019-01-17T14:34:34.163Z,99412.02
2019-01-17T14:37:38.043Z,99414.53
2019-01-17T14:40:41.954Z,99423.81
2019-01-17T14:43:46.143Z,99431.91
2019-01-17T14:46:50.125Z,99439.98
2019-01-17T14:49:53.999Z,99444.68
2019-01-17T14:52:57.922Z,99450.31
2019-01-17T14:56:01.881Z,99453.98
2019-01-17T14:59:05.701Z,99460.52
2019-01-17T15:02:09.634Z,99455.36
2019-01-17T15:05:13.702Z,99462.27
2019-01-17T15:08:17.596Z,99467.39
2019-01-17T15:11:21.481Z,99471.41
2019-01-17T15:14:25.290Z,99475.13
2019-01-17T15:17:29.563Z,99469.34
2019-01-17T15:20:33.540Z,99471.95
2019-01-17T15:23:37.360Z,99483.03
2019-01-17T15:26:41.269Z,99489.45
2019-01-17T15:29:45.386Z,99496.75
2019-01-17T15:32:49.823Z,99506.02
2019-01-17T15:35:54.182Z,99514.23
2019-01-17T15:38:58.002Z,99521.36
2019-01-17T15:42:01.925Z,99527.91
2019-01-17T15:45:06.695Z,99538.19
2019-01-17T15:48:10.520Z,99545.26
2019-01-17T15:51:14.403Z,99539.94
2019-01-17T15:54:18.303Z,99548.83
2019-01-17T15:57:22.266Z,99552.06
2019-01-17T16:00:31.768Z,99559.00
2019-01-17T16:03:35.694Z,99556.48
2019-01-17T16:06:39.601Z,99563.46
2019-01-17T16:09:43.907Z,99572.31
2019-01-17T16:12:47.855Z,99568.12
2019-01-17T16:15:51.676Z,99581.64
2019-01-17T16:18:55.581Z,99590.09
2019-01-17T16:21:59.643Z,99591.41
2019-01-17T16:25:06.062Z,99597.41
2019-01-17T16:28:09.888Z,99598.31
2019-01-17T16:31:13.687Z,99602.91
2019-01-17T16:34:17.585Z,99629.66
2019-01-17T16:37:21.870Z,99636.30
2019-01-17T16:40:25.908Z,99651.19
2019-01-17T16:43:30.213Z,99670.67
2019-01-17T16:46:34.505Z,99683.05
2019-01-17T16:49:38.594Z,99687.32
2019-01-17T16:52:42.879Z,99695.78
2019-01-17T16:55:47.172Z,99698.55
2019-01-17T16:58:51.242Z,99706.02
2019-01-17T17:01:55.518Z,99718.77
2019-01-17T17:04:59.309Z,99727.66
2019-01-17T17:08:03.663Z,99736.89
2019-01-17T17:11:07.959Z,99752.20
2019-01-17T17:14:12.089Z,99757.89
2019-01-17T17:17:16.377Z,99768.34
2019-01-17T17:20:21.266Z,99772.73
2019-01-17T17:23:25.210Z,99780.61
2019-01-17T17:26:29.118Z,99789.86
2019-01-17T17:29:32.913Z,99809.06
2019-01-17T17:32:36.779Z,99822.11
2019-01-17T17:35:40.639Z,99826.97
2019-01-17T17:38:44.440Z,99836.97
2019-01-17T17:41:48.378Z,99860.57
2019-01-17T17:44:52.455Z,99859.31
2019-01-17T17:47:58.139Z,99873.70
2019-01-17T17:51:02.115Z,99879.81
2019-01-17T17:54:06.078Z,99899.88
2019-01-17T17:57:10.163Z,99916.86
2019-01-17T18:00:22.165Z,99937.36
2019-01-17T18:03:26.229Z,99945.17
2019-01-17T18:06:30.093Z,99956.08
2019-01-17T18:09:34.172Z,99970.01
2019-01-17T18:12:38.737Z,99981.36
2019-01-17T18:15:42.839Z,99994.83
2019-01-17T18:18:46.999Z,100000.48
2019-01-17T18:21:51.057Z,100016.64
2019-01-17T18:24:54.876Z,100022.75
2019-01-17T18:27:58.795Z,100031.06
2019-01-17T18:31:02.679Z,100033.23
2019-01-17T18:34:06.658Z,100038.02
2019-01-17T18:37:10.501Z,100043.70
2019-01-17T18:40:15.871Z,100058.91
2019-01-17T18:43:20.158Z,100072.39
2019-01-17T18:46:24.697Z,100077.63
2019-01-17T18:49:28.626Z,100087.62
2019-01-17T18:52:32.696Z,100103.30
2019-01-17T18:55:37.162Z,100109.39
2019-01-17T18:58:41.139Z,100122.45
2019-01-17T19:01:45.325Z,100134.63
2019-01-17T19:04:49.191Z,100147.23
2019-01-17T19:07:53.175Z,100159.84
2019-01-17T19:10:57.151Z,100169.00
2019-01-17T19:14:01.047Z,100183.34
2019-01-17T19:17:05.029Z,100192.08
2019-01-17T19:20:11.309Z,100200.75
2019-01-17T19:23:15.118Z,100213.37
2019-01-17T19:26:18.935Z,100217.73
2019-01-17T19:29:22.899Z,100230.75
2019-01-17T19:32:26.779Z,100232.09
2019-01-17T19:35:30.826Z,100239.91
2019-01-17T19:38:34.716Z,100251.63
2019-01-17T19:41:38.658Z,100260.36
2019-01-17T19:44:42.648Z,100265.56
2019-01-17T19:47:46.613Z,100269.06
2019-01-17T19:50:50.487Z,100280.83
2019-01-17T19:53:54.484Z,100290.81
2019-01-17T19:56:58.391Z,100299.45
2019-01-17T20:00:02.380Z,100307.73
2019-01-17T20:03:06.680Z,100312.52
2019-01-17T20:06:10.647Z,100328.13
2019-01-17T20:09:16.505Z,100349.02
2019-01-17T20:12:20.482Z,100356.00
2019-01-17T20:15:24.490Z,100369.53
2019-01-17T20:18:28.442Z,100377.78
2019-01-17T20:21:32.307Z,100383.36
2019-01-17T20:24:36.204Z,100393.87
2019-01-17T20:27:40.147Z,100399.55
2019-01-17T20:30:44.887Z,100406.14
2019-01-17T20:33:48.936Z,100410.80
2019-01-17T20:36:52.854Z,100417.78
2019-01-17T20:39:56.819Z,100428.67
2019-01-17T20:43:00.784Z,100434.34
2019-01-17T20:46:04.749Z,100448.66
2019-01-17T20:49:08.533Z,100453.05
2019-01-17T20:52:12.429Z,100462.61
2019-01-17T20:55:16.412Z,100467.72
2019-01-17T20:58:20.411Z,100474.66
2019-01-17T21:01:42.322Z,100481.11
2019-01-17T21:04:46.199Z,100491.97
2019-01-17T21:07:50.071Z,100504.57
2019-01-17T21:10:53.950Z,100500.20
2019-01-17T21:13:57.841Z,100510.19
2019-01-17T21:17:01.725Z,100519.32
2019-01-17T21:20:06.345Z,100531.48
2019-01-17T21:23:10.178Z,100536.38
2019-01-17T21:26:14.051Z,100534.20
2019-01-17T21:29:17.963Z,100548.47
2019-01-17T21:32:21.814Z,100550.62
2019-01-17T21:35:25.734Z,100561.85
2019-01-17T21:38:29.584Z,100570.48
2019-01-17T21:41:33.467Z,100575.28
2019-01-17T21:44:37.322Z,100585.77
2019-01-17T21:47:41.385Z,100601.92
2019-01-17T21:50:45.242Z,100597.04
2019-01-17T21:53:49.154Z,100612.22
2019-01-17T21:56:53.029Z,100616.58
2019-01-17T21:59:56.928Z,100627.15
2019-01-17T22:03:00.711Z,100627.95
2019-01-17T22:06:04.860Z,100632.05
2019-01-17T22:09:08.946Z,100638.53
2019-01-17T22:12:12.824Z,100650.58
2019-01-17T22:15:21.469Z,100661.33
2019-01-17T22:18:25.346Z,100657.64
2019-01-17T22:21:29.299Z,100664.16
2019-01-17T22:24:33.178Z,100670.62
2019-01-17T22:27:37.066Z,100679.39
2019-01-17T22:30:41.031Z,100684.10
2019-01-17T22:33:45.009Z,100683.17
2019-01-17T22:36:48.970Z,100690.66
2019-01-17T22:39:52.869Z,100690.17
2019-01-17T22:42:56.843Z,100700.42
2019-01-17T22:46:00.724Z,100701.77
2019-01-17T22:49:04.614Z,100708.28
2019-01-17T22:52:08.646Z,100710.89
2019-01-17T22:55:12.609Z,100723.52
2019-01-17T22:58:16.408Z,100726.50
2019-01-17T23:01:26.394Z,100737.74
2019-01-17T23:04:30.373Z,100735.58
2019-01-17T23:07:34.196Z,100741.95
2019-01-17T23:10:38.259Z,100747.68
2019-01-17T23:13:42.138Z,100755.91
2019-01-17T23:16:46.039Z,100765.36
2019-01-17T23:19:50.027Z,100767.93
2019-01-17T23:22:54.017Z,100772.24
2019-01-17T23:25:57.872Z,100772.20
2019-01-17T23:29:01.746Z,100786.02
2019-01-17T23:32:05.708Z,100788.08
2019-01-17T23:35:09.796Z,100799.76
2019-01-17T23:38:13.672Z,100808.52
2019-01-17T23:41:17.623Z,100811.56
2019-01-17T23:44:21.614Z,100817.63
2019-01-17T23:47:25.592Z,100826.80
2019-01-17T23:50:29.473Z,100821.72
2019-01-17T23:53:33.352Z,100833.41
2019-01-17T23:56:37.243Z,100847.60
2019-01-17T23:59:41.144Z,100850.16
